sensor_id;sensor_type;location;lat;lon;timestamp;P1;durP1;ratioP1;P2;durP2;ratioP2
41568;SDS011;27283;52.504;13.358;2023-04-15T00:02:18;115.78;;;44.72;;
41568;SDS011;27283;52.504;13.358;2023-04-15T00:04:50;111.43;;;43.40;;
41568;SDS011;27283;52.504;13.358;2023-04-15T00:07:25;110.80;;;43.95;;
41568;SDS011;27283;52.504;13.358;2023-04-15T00:09:57;119.93;;;45.50;;
41568;SDS011;27283;52.504;13.358;2023-04-15T00:12:30;127.13;;;45.88;;
41568;SDS011;27283;52.504;13.358;2023-04-15T00:15:02;122.35;;;47.22;;
41568;SDS011;27283;52.504;13.358;2023-04-15T00:17:36;124.35;;;47.00;;
41568;SDS011;27283;52.504;13.358;2023-04-15T00:20:09;135.15;;;48.03;;
41568;SDS011;27283;52.504;13.358;2023-04-15T00:22:44;131.07;;;47.70;;
41568;SDS011;27283;52.504;13.358;2023-04-15T00:25:16;141.55;;;48.60;;
41568;SDS011;27283;52.504;13.358;2023-04-15T00:27:49;132.32;;;49.20;;
41568;SDS011;27283;52.504;13.358;2023-04-15T00:30:21;131.73;;;46.70;;
41568;SDS011;27283;52.504;13.358;2023-04-15T00:32:54;141.45;;;49.67;;
41568;SDS011;27283;52.504;13.358;2023-04-15T00:35:26;132.98;;;46.80;;
41568;SDS011;27283;52.504;13.358;2023-04-15T00:38:04;121.78;;;45.60;;
41568;SDS011;27283;52.504;13.358;2023-04-15T00:40:37;131.40;;;48.97;;
41568;SDS011;27283;52.504;13.358;2023-04-15T00:43:09;129.75;;;47.83;;
41568;SDS011;27283;52.504;13.358;2023-04-15T00:45:41;136.70;;;48.00;;
41568;SDS011;27283;52.504;13.358;2023-04-15T00:48:14;142.65;;;49.70;;
41568;SDS011;27283;52.504;13.358;2023-04-15T00:50:47;142.15;;;49.95;;
41568;SDS011;27283;52.504;13.358;2023-04-15T00:53:22;131.73;;;47.15;;
41568;SDS011;27283;52.504;13.358;2023-04-15T00:55:54;128.65;;;47.33;;
41568;SDS011;27283;52.504;13.358;2023-04-15T00:58:27;137.77;;;50.78;;
41568;SDS011;27283;52.504;13.358;2023-04-15T01:00:59;133.15;;;47.97;;
41568;SDS011;27283;52.504;13.358;2023-04-15T01:03:32;142.40;;;49.08;;
41568;SDS011;27283;52.504;13.358;2023-04-15T01:06:04;139.77;;;49.90;;
41568;SDS011;27283;52.504;13.358;2023-04-15T01:08:40;140.13;;;49.60;;
41568;SDS011;27283;52.504;13.358;2023-04-15T01:11:12;142.07;;;49.22;;
41568;SDS011;27283;52.504;13.358;2023-04-15T01:13:46;135.50;;;48.67;;
41568;SDS011;27283;52.504;13.358;2023-04-15T01:16:18;145.77;;;49.72;;
41568;SDS011;27283;52.504;13.358;2023-04-15T01:18:51;132.50;;;47.70;;
41568;SDS011;27283;52.504;13.358;2023-04-15T01:21:23;127.35;;;46.75;;
41568;SDS011;27283;52.504;13.358;2023-04-15T01:23:58;136.18;;;48.58;;
41568;SDS011;27283;52.504;13.358;2023-04-15T01:26:34;135.98;;;48.30;;
41568;SDS011;27283;52.504;13.358;2023-04-15T01:29:12;135.43;;;47.70;;
41568;SDS011;27283;52.504;13.358;2023-04-15T01:31:48;140.45;;;47.90;;
41568;SDS011;27283;52.504;13.358;2023-04-15T01:34:22;135.52;;;48.28;;
41568;SDS011;27283;52.504;13.358;2023-04-15T01:36:54;140.23;;;47.88;;
41568;SDS011;27283;52.504;13.358;2023-04-15T01:39:27;149.10;;;50.90;;
41568;SDS011;27283;52.504;13.358;2023-04-15T01:42:02;145.32;;;50.78;;
41568;SDS011;27283;52.504;13.358;2023-04-15T01:44:34;146.48;;;50.88;;
41568;SDS011;27283;52.504;13.358;2023-04-15T01:47:06;142.55;;;49.78;;
41568;SDS011;27283;52.504;13.358;2023-04-15T01:49:40;140.57;;;50.70;;
41568;SDS011;27283;52.504;13.358;2023-04-15T01:52:12;148.02;;;50.45;;
41568;SDS011;27283;52.504;13.358;2023-04-15T01:54:44;144.02;;;50.13;;
41568;SDS011;27283;52.504;13.358;2023-04-15T01:57:19;142.05;;;50.13;;
41568;SDS011;27283;52.504;13.358;2023-04-15T01:59:52;149.25;;;51.35;;
41568;SDS011;27283;52.504;13.358;2023-04-15T02:02:24;144.30;;;48.90;;
41568;SDS011;27283;52.504;13.358;2023-04-15T02:04:57;146.27;;;49.78;;
41568;SDS011;27283;52.504;13.358;2023-04-15T02:07:29;142.32;;;50.10;;
41568;SDS011;27283;52.504;13.358;2023-04-15T02:10:02;145.60;;;49.25;;
41568;SDS011;27283;52.504;13.358;2023-04-15T02:12:37;144.00;;;50.47;;
41568;SDS011;27283;52.504;13.358;2023-04-15T02:15:10;141.07;;;48.22;;
41568;SDS011;27283;52.504;13.358;2023-04-15T02:17:42;147.10;;;50.72;;
41568;SDS011;27283;52.504;13.358;2023-04-15T02:20:18;136.70;;;48.88;;
41568;SDS011;27283;52.504;13.358;2023-04-15T02:22:50;147.10;;;49.10;;
41568;SDS011;27283;52.504;13.358;2023-04-15T02:25:24;142.38;;;49.05;;
41568;SDS011;27283;52.504;13.358;2023-04-15T02:27:59;144.85;;;49.95;;
41568;SDS011;27283;52.504;13.358;2023-04-15T02:30:31;146.98;;;50.33;;
41568;SDS011;27283;52.504;13.358;2023-04-15T02:33:03;142.35;;;48.10;;
41568;SDS011;27283;52.504;13.358;2023-04-15T02:35:35;142.85;;;49.97;;
41568;SDS011;27283;52.504;13.358;2023-04-15T02:38:11;145.85;;;49.08;;
41568;SDS011;27283;52.504;13.358;2023-04-15T02:40:45;146.77;;;49.05;;
41568;SDS011;27283;52.504;13.358;2023-04-15T02:43:20;148.70;;;50.72;;
41568;SDS011;27283;52.504;13.358;2023-04-15T02:45:52;148.35;;;51.88;;
41568;SDS011;27283;52.504;13.358;2023-04-15T02:48:24;151.23;;;50.90;;
41568;SDS011;27283;52.504;13.358;2023-04-15T02:51:09;133.88;;;48.05;;
41568;SDS011;27283;52.504;13.358;2023-04-15T02:53:42;141.32;;;48.60;;
41568;SDS011;27283;52.504;13.358;2023-04-15T02:56:14;144.90;;;49.80;;
41568;SDS011;27283;52.504;13.358;2023-04-15T02:58:49;145.55;;;49.47;;
41568;SDS011;27283;52.504;13.358;2023-04-15T03:01:23;144.27;;;50.22;;
41568;SDS011;27283;52.504;13.358;2023-04-15T03:03:55;144.40;;;48.67;;
41568;SDS011;27283;52.504;13.358;2023-04-15T03:06:28;135.77;;;47.85;;
41568;SDS011;27283;52.504;13.358;2023-04-15T03:08:59;139.30;;;47.85;;
41568;SDS011;27283;52.504;13.358;2023-04-15T03:11:32;143.45;;;49.55;;
41568;SDS011;27283;52.504;13.358;2023-04-15T03:14:10;142.15;;;49.47;;
41568;SDS011;27283;52.504;13.358;2023-04-15T03:16:42;141.32;;;49.88;;
41568;SDS011;27283;52.504;13.358;2023-04-15T03:19:14;148.95;;;50.72;;
41568;SDS011;27283;52.504;13.358;2023-04-15T03:21:46;148.10;;;50.75;;
41568;SDS011;27283;52.504;13.358;2023-04-15T03:24:17;151.40;;;51.17;;
41568;SDS011;27283;52.504;13.358;2023-04-15T03:26:51;143.98;;;48.88;;
41568;SDS011;27283;52.504;13.358;2023-04-15T03:29:31;137.65;;;48.80;;
41568;SDS011;27283;52.504;13.358;2023-04-15T03:32:04;134.45;;;47.78;;
41568;SDS011;27283;52.504;13.358;2023-04-15T03:34:35;131.55;;;47.60;;
41568;SDS011;27283;52.504;13.358;2023-04-15T03:37:08;133.10;;;47.45;;
41568;SDS011;27283;52.504;13.358;2023-04-15T03:39:40;124.25;;;46.67;;
41568;SDS011;27283;52.504;13.358;2023-04-15T03:42:12;126.25;;;46.20;;
41568;SDS011;27283;52.504;13.358;2023-04-15T03:44:46;124.22;;;46.17;;
41568;SDS011;27283;52.504;13.358;2023-04-15T03:47:18;120.22;;;45.38;;
41568;SDS011;27283;52.504;13.358;2023-04-15T03:49:50;126.47;;;46.65;;
41568;SDS011;27283;52.504;13.358;2023-04-15T03:52:22;116.18;;;46.03;;
41568;SDS011;27283;52.504;13.358;2023-04-15T03:54:54;129.27;;;46.47;;
41568;SDS011;27283;52.504;13.358;2023-04-15T03:57:26;115.40;;;44.15;;
41568;SDS011;27283;52.504;13.358;2023-04-15T04:00:00;118.72;;;44.75;;
41568;SDS011;27283;52.504;13.358;2023-04-15T04:02:33;114.82;;;43.53;;
41568;SDS011;27283;52.504;13.358;2023-04-15T04:05:05;107.95;;;43.85;;
41568;SDS011;27283;52.504;13.358;2023-04-15T04:07:37;111.70;;;42.60;;
41568;SDS011;27283;52.504;13.358;2023-04-15T04:10:09;103.07;;;41.38;;
41568;SDS011;27283;52.504;13.358;2023-04-15T04:12:41;105.00;;;41.70;;
41568;SDS011;27283;52.504;13.358;2023-04-15T04:15:16;102.95;;;42.05;;
41568;SDS011;27283;52.504;13.358;2023-04-15T04:17:49;101.40;;;40.10;;
41568;SDS011;27283;52.504;13.358;2023-04-15T04:20:21;98.80;;;38.83;;
41568;SDS011;27283;52.504;13.358;2023-04-15T04:22:53;99.43;;;40.20;;
41568;SDS011;27283;52.504;13.358;2023-04-15T04:25:25;97.63;;;38.85;;
41568;SDS011;27283;52.504;13.358;2023-04-15T04:27:57;95.32;;;39.47;;
41568;SDS011;27283;52.504;13.358;2023-04-15T04:30:32;90.40;;;38.38;;
41568;SDS011;27283;52.504;13.358;2023-04-15T04:33:06;95.43;;;38.83;;
41568;SDS011;27283;52.504;13.358;2023-04-15T04:35:38;88.90;;;36.90;;
41568;SDS011;27283;52.504;13.358;2023-04-15T04:38:11;92.80;;;38.30;;
41568;SDS011;27283;52.504;13.358;2023-04-15T04:40:43;87.75;;;36.92;;
41568;SDS011;27283;52.504;13.358;2023-04-15T04:43:15;89.03;;;36.85;;
41568;SDS011;27283;52.504;13.358;2023-04-15T04:45:50;83.68;;;36.63;;
41568;SDS011;27283;52.504;13.358;2023-04-15T04:48:22;83.47;;;35.83;;
41568;SDS011;27283;52.504;13.358;2023-04-15T04:50:54;79.18;;;34.95;;
41568;SDS011;27283;52.504;13.358;2023-04-15T04:53:27;79.05;;;35.35;;
41568;SDS011;27283;52.504;13.358;2023-04-15T04:55:59;69.03;;;33.53;;
41568;SDS011;27283;52.504;13.358;2023-04-15T04:58:31;74.63;;;33.05;;
41568;SDS011;27283;52.504;13.358;2023-04-15T05:01:06;77.05;;;35.05;;
41568;SDS011;27283;52.504;13.358;2023-04-15T05:03:38;78.35;;;34.53;;
41568;SDS011;27283;52.504;13.358;2023-04-15T05:06:11;69.75;;;33.22;;
41568;SDS011;27283;52.504;13.358;2023-04-15T05:08:43;75.60;;;32.90;;
41568;SDS011;27283;52.504;13.358;2023-04-15T05:11:15;77.15;;;32.95;;
41568;SDS011;27283;52.504;13.358;2023-04-15T05:13:48;73.47;;;32.17;;
41568;SDS011;27283;52.504;13.358;2023-04-15T05:16:22;66.97;;;31.20;;
41568;SDS011;27283;52.504;13.358;2023-04-15T05:18:55;69.28;;;32.55;;
41568;SDS011;27283;52.504;13.358;2023-04-15T05:21:27;72.88;;;32.63;;
41568;SDS011;27283;52.504;13.358;2023-04-15T05:24:00;67.30;;;31.73;;
41568;SDS011;27283;52.504;13.358;2023-04-15T05:26:32;70.55;;;31.58;;
41568;SDS011;27283;52.504;13.358;2023-04-15T05:29:05;67.57;;;31.45;;
41568;SDS011;27283;52.504;13.358;2023-04-15T05:31:39;65.63;;;30.60;;
41568;SDS011;27283;52.504;13.358;2023-04-15T05:34:12;71.38;;;31.35;;
41568;SDS011;27283;52.504;13.358;2023-04-15T05:36:44;59.50;;;29.83;;
41568;SDS011;27283;52.504;13.358;2023-04-15T05:39:17;62.28;;;28.83;;
41568;SDS011;27283;52.504;13.358;2023-04-15T05:41:49;62.70;;;30.35;;
41568;SDS011;27283;52.504;13.358;2023-04-15T05:44:21;61.03;;;30.75;;
41568;SDS011;27283;52.504;13.358;2023-04-15T05:46:57;57.78;;;27.35;;
41568;SDS011;27283;52.504;13.358;2023-04-15T05:49:31;57.00;;;27.80;;
41568;SDS011;27283;52.504;13.358;2023-04-15T05:52:03;46.70;;;25.67;;
41568;SDS011;27283;52.504;13.358;2023-04-15T05:54:36;51.40;;;25.20;;
41568;SDS011;27283;52.504;13.358;2023-04-15T05:57:08;51.70;;;24.80;;
41568;SDS011;27283;52.504;13.358;2023-04-15T05:59:40;46.28;;;23.80;;
41568;SDS011;27283;52.504;13.358;2023-04-15T06:02:14;47.65;;;24.50;;
41568;SDS011;27283;52.504;13.358;2023-04-15T06:04:47;45.78;;;23.77;;
41568;SDS011;27283;52.504;13.358;2023-04-15T06:07:19;46.38;;;22.98;;
41568;SDS011;27283;52.504;13.358;2023-04-15T06:09:51;45.05;;;22.80;;
41568;SDS011;27283;52.504;13.358;2023-04-15T06:12:23;42.95;;;22.20;;
41568;SDS011;27283;52.504;13.358;2023-04-15T06:14:56;36.88;;;20.95;;
41568;SDS011;27283;52.504;13.358;2023-04-15T06:17:30;40.38;;;21.92;;
41568;SDS011;27283;52.504;13.358;2023-04-15T06:20:02;44.72;;;23.52;;
41568;SDS011;27283;52.504;13.358;2023-04-15T06:22:35;42.40;;;23.80;;
41568;SDS011;27283;52.504;13.358;2023-04-15T06:25:08;48.08;;;23.13;;
41568;SDS011;27283;52.504;13.358;2023-04-15T06:27:40;40.90;;;22.75;;
41568;SDS011;27283;52.504;13.358;2023-04-15T06:30:12;39.75;;;21.52;;
41568;SDS011;27283;52.504;13.358;2023-04-15T06:32:47;40.35;;;21.00;;
41568;SDS011;27283;52.504;13.358;2023-04-15T06:35:19;34.50;;;19.42;;
41568;SDS011;27283;52.504;13.358;2023-04-15T06:37:51;36.38;;;20.05;;
41568;SDS011;27283;52.504;13.358;2023-04-15T06:40:23;40.05;;;18.98;;
41568;SDS011;27283;52.504;13.358;2023-04-15T06:42:55;34.15;;;19.73;;
41568;SDS011;27283;52.504;13.358;2023-04-15T06:45:27;30.13;;;18.25;;
41568;SDS011;27283;52.504;13.358;2023-04-15T06:48:02;33.72;;;18.70;;
41568;SDS011;27283;52.504;13.358;2023-04-15T06:50:34;29.95;;;17.50;;
41568;SDS011;27283;52.504;13.358;2023-04-15T06:53:06;29.40;;;17.25;;
41568;SDS011;27283;52.504;13.358;2023-04-15T06:55:38;30.88;;;17.67;;
41568;SDS011;27283;52.504;13.358;2023-04-15T06:58:10;26.08;;;16.27;;
41568;SDS011;27283;52.504;13.358;2023-04-15T07:00:42;27.77;;;15.73;;
41568;SDS011;27283;52.504;13.358;2023-04-15T07:03:17;22.45;;;14.30;;
41568;SDS011;27283;52.504;13.358;2023-04-15T07:05:49;22.08;;;14.48;;
41568;SDS011;27283;52.504;13.358;2023-04-15T07:08:21;24.52;;;14.77;;
41568;SDS011;27283;52.504;13.358;2023-04-15T07:10:54;21.88;;;13.88;;
41568;SDS011;27283;52.504;13.358;2023-04-15T07:13:25;27.05;;;14.70;;
41568;SDS011;27283;52.504;13.358;2023-04-15T07:16:04;23.75;;;14.57;;
41568;SDS011;27283;52.504;13.358;2023-04-15T07:18:39;23.92;;;13.75;;
41568;SDS011;27283;52.504;13.358;2023-04-15T07:21:11;22.90;;;13.57;;
41568;SDS011;27283;52.504;13.358;2023-04-15T07:23:43;22.20;;;14.95;;
41568;SDS011;27283;52.504;13.358;2023-04-15T07:26:15;24.23;;;14.50;;
41568;SDS011;27283;52.504;13.358;2023-04-15T07:28:47;25.17;;;15.57;;
41568;SDS011;27283;52.504;13.358;2023-04-15T07:31:19;26.98;;;14.85;;
41568;SDS011;27283;52.504;13.358;2023-04-15T07:33:54;24.80;;;14.60;;
41568;SDS011;27283;52.504;13.358;2023-04-15T07:36:26;23.90;;;15.05;;
41568;SDS011;27283;52.504;13.358;2023-04-15T07:38:58;24.58;;;16.17;;
41568;SDS011;27283;52.504;13.358;2023-04-15T07:41:31;25.40;;;14.93;;
41568;SDS011;27283;52.504;13.358;2023-04-15T07:44:03;27.15;;;15.77;;
41568;SDS011;27283;52.504;13.358;2023-04-15T07:46:36;30.58;;;15.90;;
41568;SDS011;27283;52.504;13.358;2023-04-15T07:49:10;31.30;;;16.05;;
41568;SDS011;27283;52.504;13.358;2023-04-15T07:51:43;26.05;;;15.07;;
41568;SDS011;27283;52.504;13.358;2023-04-15T07:54:15;26.27;;;16.15;;
41568;SDS011;27283;52.504;13.358;2023-04-15T07:56:47;25.05;;;15.38;;
41568;SDS011;27283;52.504;13.358;2023-04-15T07:59:19;29.25;;;17.02;;
41568;SDS011;27283;52.504;13.358;2023-04-15T08:01:51;27.33;;;16.27;;
41568;SDS011;27283;52.504;13.358;2023-04-15T08:04:26;29.52;;;16.75;;
41568;SDS011;27283;52.504;13.358;2023-04-15T08:06:59;26.73;;;16.10;;
41568;SDS011;27283;52.504;13.358;2023-04-15T08:09:31;28.27;;;17.38;;
41568;SDS011;27283;52.504;13.358;2023-04-15T08:12:04;26.38;;;16.60;;
41568;SDS011;27283;52.504;13.358;2023-04-15T08:14:39;27.70;;;17.13;;
41568;SDS011;27283;52.504;13.358;2023-04-15T08:17:15;25.35;;;16.67;;
41568;SDS011;27283;52.504;13.358;2023-04-15T08:19:50;28.13;;;17.02;;
41568;SDS011;27283;52.504;13.358;2023-04-15T08:22:22;28.73;;;16.58;;
41568;SDS011;27283;52.504;13.358;2023-04-15T08:24:54;28.60;;;16.63;;
41568;SDS011;27283;52.504;13.358;2023-04-15T08:27:28;28.27;;;17.15;;
41568;SDS011;27283;52.504;13.358;2023-04-15T08:30:00;29.85;;;17.52;;
41568;SDS011;27283;52.504;13.358;2023-04-15T08:32:33;28.27;;;17.77;;
41568;SDS011;27283;52.504;13.358;2023-04-15T08:35:08;28.65;;;17.52;;
41568;SDS011;27283;52.504;13.358;2023-04-15T08:37:40;28.27;;;17.65;;
41568;SDS011;27283;52.504;13.358;2023-04-15T08:40:12;32.30;;;18.17;;
41568;SDS011;27283;52.504;13.358;2023-04-15T08:42:45;32.20;;;18.80;;
41568;SDS011;27283;52.504;13.358;2023-04-15T08:45:23;30.70;;;18.35;;
41568;SDS011;27283;52.504;13.358;2023-04-15T08:47:56;28.42;;;18.73;;
41568;SDS011;27283;52.504;13.358;2023-04-15T08:50:32;29.38;;;18.20;;
41568;SDS011;27283;52.504;13.358;2023-04-15T08:53:05;32.40;;;18.85;;
41568;SDS011;27283;52.504;13.358;2023-04-15T08:55:38;29.88;;;17.90;;
41568;SDS011;27283;52.504;13.358;2023-04-15T08:58:14;29.98;;;18.65;;
41568;SDS011;27283;52.504;13.358;2023-04-15T09:00:47;33.30;;;19.08;;
41568;SDS011;27283;52.504;13.358;2023-04-15T09:03:19;30.80;;;19.20;;
41568;SDS011;27283;52.504;13.358;2023-04-15T09:05:55;28.33;;;18.40;;
41568;SDS011;27283;52.504;13.358;2023-04-15T09:08:28;29.55;;;19.30;;
41568;SDS011;27283;52.504;13.358;2023-04-15T09:11:00;30.73;;;19.02;;
41568;SDS011;27283;52.504;13.358;2023-04-15T09:13:33;29.23;;;18.80;;
41568;SDS011;27283;52.504;13.358;2023-04-15T09:16:05;32.63;;;20.38;;
41568;SDS011;27283;52.504;13.358;2023-04-15T09:18:38;32.50;;;20.27;;
41568;SDS011;27283;52.504;13.358;2023-04-15T09:21:14;28.90;;;18.83;;
41568;SDS011;27283;52.504;13.358;2023-04-15T09:23:55;30.33;;;19.92;;
41568;SDS011;27283;52.504;13.358;2023-04-15T09:26:29;28.30;;;18.55;;
41568;SDS011;27283;52.504;13.358;2023-04-15T09:29:03;28.27;;;17.70;;
41568;SDS011;27283;52.504;13.358;2023-04-15T09:31:36;28.08;;;16.48;;
41568;SDS011;27283;52.504;13.358;2023-04-15T09:34:09;28.70;;;17.85;;
41568;SDS011;27283;52.504;13.358;2023-04-15T09:36:53;28.77;;;18.73;;
41568;SDS011;27283;52.504;13.358;2023-04-15T09:39:46;30.02;;;19.10;;
41568;SDS011;27283;52.504;13.358;2023-04-15T09:42:19;31.75;;;20.25;;
41568;SDS011;27283;52.504;13.358;2023-04-15T09:44:52;30.20;;;19.17;;
41568;SDS011;27283;52.504;13.358;2023-04-15T09:47:27;28.13;;;18.45;;
41568;SDS011;27283;52.504;13.358;2023-04-15T09:50:00;30.15;;;18.55;;
41568;SDS011;27283;52.504;13.358;2023-04-15T09:52:39;28.75;;;17.30;;
41568;SDS011;27283;52.504;13.358;2023-04-15T09:55:14;29.80;;;17.60;;
41568;SDS011;27283;52.504;13.358;2023-04-15T09:57:48;24.00;;;16.40;;
41568;SDS011;27283;52.504;13.358;2023-04-15T10:00:20;27.70;;;18.17;;
41568;SDS011;27283;52.504;13.358;2023-04-15T10:02:52;28.63;;;17.50;;
41568;SDS011;27283;52.504;13.358;2023-04-15T10:05:24;24.77;;;16.25;;
41568;SDS011;27283;52.504;13.358;2023-04-15T10:08:00;25.92;;;17.65;;
41568;SDS011;27283;52.504;13.358;2023-04-15T10:10:33;29.27;;;18.08;;
41568;SDS011;27283;52.504;13.358;2023-04-15T10:13:05;29.65;;;18.17;;
41568;SDS011;27283;52.504;13.358;2023-04-15T10:15:39;25.83;;;17.80;;
41568;SDS011;27283;52.504;13.358;2023-04-15T10:18:14;32.60;;;20.33;;
41568;SDS011;27283;52.504;13.358;2023-04-15T10:20:49;30.23;;;19.02;;
41568;SDS011;27283;52.504;13.358;2023-04-15T10:23:24;29.98;;;17.70;;
41568;SDS011;27283;52.504;13.358;2023-04-15T10:25:57;31.73;;;19.00;;
41568;SDS011;27283;52.504;13.358;2023-04-15T10:28:43;33.35;;;19.25;;
41568;SDS011;27283;52.504;13.358;2023-04-15T10:31:16;28.42;;;18.52;;
41568;SDS011;27283;52.504;13.358;2023-04-15T10:33:50;32.20;;;18.92;;
41568;SDS011;27283;52.504;13.358;2023-04-15T10:36:24;27.33;;;18.05;;
41568;SDS011;27283;52.504;13.358;2023-04-15T10:38:59;27.80;;;18.13;;
41568;SDS011;27283;52.504;13.358;2023-04-15T10:41:31;28.85;;;18.40;;
41568;SDS011;27283;52.504;13.358;2023-04-15T10:44:03;32.17;;;19.50;;
41568;SDS011;27283;52.504;13.358;2023-04-15T10:46:36;28.70;;;19.05;;
41568;SDS011;27283;52.504;13.358;2023-04-15T10:49:10;30.90;;;18.95;;
41568;SDS011;27283;52.504;13.358;2023-04-15T10:51:46;31.65;;;20.02;;
41568;SDS011;27283;52.504;13.358;2023-04-15T10:54:32;30.48;;;18.80;;
41568;SDS011;27283;52.504;13.358;2023-04-15T10:57:06;29.27;;;19.13;;
41568;SDS011;27283;52.504;13.358;2023-04-15T11:00:11;28.15;;;18.27;;
41568;SDS011;27283;52.504;13.358;2023-04-15T11:02:45;32.08;;;19.67;;
41568;SDS011;27283;52.504;13.358;2023-04-15T11:05:47;29.05;;;18.90;;
41568;SDS011;27283;52.504;13.358;2023-04-15T11:08:21;32.00;;;18.40;;
41568;SDS011;27283;52.504;13.358;2023-04-15T11:14:30;28.33;;;17.45;;
41568;SDS011;27283;52.504;13.358;2023-04-15T11:17:03;26.80;;;16.83;;
41568;SDS011;27283;52.504;13.358;2023-04-15T11:19:36;30.23;;;17.50;;
41568;SDS011;27283;52.504;13.358;2023-04-15T11:22:08;28.45;;;18.45;;
41568;SDS011;27283;52.504;13.358;2023-04-15T11:24:46;25.58;;;16.77;;
41568;SDS011;27283;52.504;13.358;2023-04-15T11:27:20;26.77;;;16.52;;
41568;SDS011;27283;52.504;13.358;2023-04-15T11:29:55;26.20;;;17.30;;
41568;SDS011;27283;52.504;13.358;2023-04-15T11:32:27;28.25;;;17.15;;
41568;SDS011;27283;52.504;13.358;2023-04-15T11:35:00;27.50;;;17.88;;
41568;SDS011;27283;52.504;13.358;2023-04-15T11:37:32;27.17;;;16.50;;
41568;SDS011;27283;52.504;13.358;2023-04-15T11:40:05;28.80;;;18.15;;
41568;SDS011;27283;52.504;13.358;2023-04-15T11:42:39;30.10;;;19.05;;
41568;SDS011;27283;52.504;13.358;2023-04-15T11:45:20;30.42;;;18.48;;
41568;SDS011;27283;52.504;13.358;2023-04-15T11:47:52;28.33;;;17.75;;
41568;SDS011;27283;52.504;13.358;2023-04-15T11:50:24;28.83;;;18.13;;
41568;SDS011;27283;52.504;13.358;2023-04-15T11:52:57;28.58;;;16.75;;
41568;SDS011;27283;52.504;13.358;2023-04-15T11:55:31;28.40;;;17.92;;
41568;SDS011;27283;52.504;13.358;2023-04-15T11:58:15;26.25;;;16.70;;
41568;SDS011;27283;52.504;13.358;2023-04-15T12:00:51;27.38;;;17.75;;
41568;SDS011;27283;52.504;13.358;2023-04-15T12:03:25;27.75;;;18.05;;
41568;SDS011;27283;52.504;13.358;2023-04-15T12:06:12;29.58;;;17.67;;
41568;SDS011;27283;52.504;13.358;2023-04-15T12:08:50;26.45;;;16.70;;
41568;SDS011;27283;52.504;13.358;2023-04-15T12:11:35;28.13;;;18.38;;
41568;SDS011;27283;52.504;13.358;2023-04-15T12:14:12;31.60;;;18.30;;
41568;SDS011;27283;52.504;13.358;2023-04-15T12:16:56;33.10;;;20.65;;
41568;SDS011;27283;52.504;13.358;2023-04-15T12:19:30;30.40;;;20.40;;
41568;SDS011;27283;52.504;13.358;2023-04-15T12:22:07;33.08;;;20.38;;
41568;SDS011;27283;52.504;13.358;2023-04-15T12:24:40;31.10;;;19.85;;
41568;SDS011;27283;52.504;13.358;2023-04-15T12:27:16;31.48;;;19.50;;
41568;SDS011;27283;52.504;13.358;2023-04-15T12:29:48;27.15;;;17.75;;
41568;SDS011;27283;52.504;13.358;2023-04-15T12:32:22;29.77;;;18.35;;
41568;SDS011;27283;52.504;13.358;2023-04-15T12:34:54;32.22;;;20.05;;
41568;SDS011;27283;52.504;13.358;2023-04-15T12:37:27;31.60;;;20.45;;
41568;SDS011;27283;52.504;13.358;2023-04-15T12:39:58;31.90;;;20.90;;
41568;SDS011;27283;52.504;13.358;2023-04-15T12:42:31;32.85;;;20.20;;
41568;SDS011;27283;52.504;13.358;2023-04-15T12:45:03;28.38;;;17.58;;
41568;SDS011;27283;52.504;13.358;2023-04-15T12:47:38;26.48;;;17.10;;
41568;SDS011;27283;52.504;13.358;2023-04-15T12:50:10;27.27;;;18.05;;
41568;SDS011;27283;52.504;13.358;2023-04-15T12:52:42;29.35;;;18.02;;
41568;SDS011;27283;52.504;13.358;2023-04-15T12:55:14;24.98;;;16.23;;
41568;SDS011;27283;52.504;13.358;2023-04-15T12:57:46;24.60;;;16.23;;
41568;SDS011;27283;52.504;13.358;2023-04-15T13:00:18;23.80;;;14.90;;
41568;SDS011;27283;52.504;13.358;2023-04-15T13:02:53;20.83;;;13.93;;
41568;SDS011;27283;52.504;13.358;2023-04-15T13:05:25;22.17;;;14.68;;
41568;SDS011;27283;52.504;13.358;2023-04-15T13:07:57;24.00;;;15.48;;
41568;SDS011;27283;52.504;13.358;2023-04-15T13:10:29;27.35;;;17.13;;
41568;SDS011;27283;52.504;13.358;2023-04-15T13:13:01;25.27;;;17.13;;
41568;SDS011;27283;52.504;13.358;2023-04-15T13:15:33;26.75;;;15.63;;
41568;SDS011;27283;52.504;13.358;2023-04-15T13:18:08;25.75;;;15.68;;
41568;SDS011;27283;52.504;13.358;2023-04-15T13:20:40;23.48;;;15.45;;
41568;SDS011;27283;52.504;13.358;2023-04-15T13:23:12;26.15;;;15.63;;
41568;SDS011;27283;52.504;13.358;2023-04-15T13:25:44;23.73;;;14.73;;
41568;SDS011;27283;52.504;13.358;2023-04-15T13:28:16;21.75;;;14.70;;
41568;SDS011;27283;52.504;13.358;2023-04-15T13:30:48;21.67;;;14.13;;
41568;SDS011;27283;52.504;13.358;2023-04-15T13:33:23;20.88;;;13.75;;
41568;SDS011;27283;52.504;13.358;2023-04-15T13:35:55;22.05;;;13.32;;
41568;SDS011;27283;52.504;13.358;2023-04-15T13:38:27;22.05;;;15.77;;
41568;SDS011;27283;52.504;13.358;2023-04-15T13:41:00;21.00;;;13.32;;
41568;SDS011;27283;52.504;13.358;2023-04-15T13:43:32;18.75;;;12.98;;
41568;SDS011;27283;52.504;13.358;2023-04-15T13:46:05;17.33;;;11.98;;
41568;SDS011;27283;52.504;13.358;2023-04-15T13:48:42;16.88;;;12.23;;
41568;SDS011;27283;52.504;13.358;2023-04-15T13:51:17;18.75;;;11.73;;
41568;SDS011;27283;52.504;13.358;2023-04-15T13:53:49;20.75;;;11.98;;
41568;SDS011;27283;52.504;13.358;2023-04-15T13:56:21;20.90;;;13.60;;
41568;SDS011;27283;52.504;13.358;2023-04-15T13:58:54;21.38;;;13.07;;
41568;SDS011;27283;52.504;13.358;2023-04-15T14:01:29;20.52;;;12.35;;
41568;SDS011;27283;52.504;13.358;2023-04-15T14:04:05;17.67;;;11.60;;
41568;SDS011;27283;52.504;13.358;2023-04-15T14:06:39;18.10;;;12.25;;
41568;SDS011;27283;52.504;13.358;2023-04-15T14:09:12;18.52;;;12.18;;
41568;SDS011;27283;52.504;13.358;2023-04-15T14:11:46;22.08;;;13.25;;
41568;SDS011;27283;52.504;13.358;2023-04-15T14:14:20;19.05;;;13.10;;
41568;SDS011;27283;52.504;13.358;2023-04-15T14:16:53;19.58;;;13.18;;
41568;SDS011;27283;52.504;13.358;2023-04-15T14:19:31;20.35;;;13.57;;
41568;SDS011;27283;52.504;13.358;2023-04-15T14:22:06;21.33;;;13.15;;
41568;SDS011;27283;52.504;13.358;2023-04-15T14:24:39;17.63;;;12.00;;
41568;SDS011;27283;52.504;13.358;2023-04-15T14:27:13;19.70;;;11.93;;
41568;SDS011;27283;52.504;13.358;2023-04-15T14:29:48;17.65;;;11.85;;
41568;SDS011;27283;52.504;13.358;2023-04-15T14:32:23;18.73;;;10.98;;
41568;SDS011;27283;52.504;13.358;2023-04-15T14:35:00;19.73;;;11.43;;
41568;SDS011;27283;52.504;13.358;2023-04-15T14:37:33;16.70;;;11.90;;
41568;SDS011;27283;52.504;13.358;2023-04-15T14:40:16;15.88;;;10.90;;
41568;SDS011;27283;52.504;13.358;2023-04-15T14:42:52;22.40;;;12.07;;
41568;SDS011;27283;52.504;13.358;2023-04-15T14:45:26;19.48;;;12.82;;
41568;SDS011;27283;52.504;13.358;2023-04-15T14:48:00;21.50;;;13.80;;